Time;durP1;ratioP1;P1;durP2;ratioP2;P2;SDS_P1;SDS_P2;PMS_P1;PMS_P2;Temp;Humidity;BMP_temperature;BMP_pressure;BME280_temperature;BME280_humidity;BME280_pressure;Samples;Min_cycle;Max_cycle;Signal;HPM_P1;HPM_P2
2023/11/28 00:01:35;;;;;;;11.37;7.50;;;4.60;99.90;;;;;;7302377;19;20227;-85
2023/11/28 00:04:00;;;;;;;11.03;6.90;;;4.60;99.90;;;;;;7279948;19;20179;-84
2023/11/28 00:06:26;;;;;;;11.57;7.00;;;4.50;99.90;;;;;;7284048;19;20195;-86
2023/11/28 00:08:52;;;;;;;11.47;6.80;;;4.50;99.90;;;;;;7282207;19;20182;-86
2023/11/28 00:11:22;;;;;;;10.93;6.73;;;4.60;99.90;;;;;;7282965;19;20586;-86
2023/11/28 00:13:49;;;;;;;12.13;7.57;;;4.50;99.90;;;;;;7282731;19;20228;-86
2023/11/28 00:16:15;;;;;;;12.57;7.23;;;4.60;99.90;;;;;;7296895;19;20187;-86
2023/11/28 00:18:41;;;;;;;12.13;7.00;;;4.60;99.90;;;;;;7284306;19;20192;-86
2023/11/28 00:21:07;;;;;;;12.73;8.27;;;4.60;99.90;;;;;;7303406;19;20178;-86
2023/11/28 00:23:33;;;;;;;13.70;8.47;;;4.50;99.90;;;;;;7283081;19;20223;-86
2023/11/28 00:25:59;;;;;;;14.77;8.83;;;4.50;99.90;;;;;;7283092;19;20191;-86
2023/11/28 00:28:25;;;;;;;14.10;9.30;;;4.50;99.90;;;;;;7281780;19;20275;-86
2023/11/28 00:30:52;;;;;;;14.43;9.43;;;4.60;99.90;;;;;;7283517;19;20187;-86
2023/11/28 00:33:18;;;;;;;16.13;8.60;;;4.60;99.90;;;;;;7283543;19;20184;-86
2023/11/28 00:35:44;;;;;;;16.17;10.07;;;4.60;99.90;;;;;;7279889;19;20197;-85
2023/11/28 00:38:10;;;;;;;16.07;9.67;;;4.60;99.90;;;;;;7284321;19;20656;-86
2023/11/28 00:40:35;;;;;;;17.37;8.93;;;4.60;99.90;;;;;;7304103;19;20239;-86
2023/11/28 00:43:03;;;;;;;16.30;9.70;;;4.60;99.90;;;;;;7281758;19;20262;-87
2023/11/28 00:45:30;;;;;;;15.17;8.97;;;4.60;99.90;;;;;;7280314;19;20191;-86
2023/11/28 00:47:56;;;;;;;16.57;9.57;;;4.60;99.90;;;;;;7281790;19;20200;-86
2023/11/28 00:50:21;;;;;;;16.87;10.33;;;4.50;99.90;;;;;;7282613;19;20193;-87
2023/11/28 00:52:48;;;;;;;15.67;9.23;;;4.50;99.90;;;;;;7282166;19;20191;-86
2023/11/28 00:55:17;;;;;;;15.77;9.70;;;4.50;99.90;;;;;;7281212;19;20714;-86
2023/11/28 00:57:44;;;;;;;16.80;10.30;;;4.60;99.90;;;;;;7283273;19;20275;-86
2023/11/28 01:00:12;;;;;;;16.53;9.90;;;4.60;99.90;;;;;;7281082;19;20198;-86
2023/11/28 01:02:39;;;;;;;15.67;9.40;;;4.80;99.90;;;;;;7299680;19;20515;-86
2023/11/28 01:05:05;;;;;;;15.53;8.97;;;4.70;99.90;;;;;;7299194;19;20673;-86
2023/11/28 01:07:31;;;;;;;17.90;8.97;;;4.70;99.90;;;;;;7279941;19;20194;-86
2023/11/28 01:09:57;;;;;;;15.10;8.57;;;4.70;99.90;;;;;;7279364;19;20191;-87
2023/11/28 01:12:24;;;;;;;16.80;10.20;;;4.50;99.90;;;;;;7281938;19;20187;-86
2023/11/28 01:14:51;;;;;;;15.80;9.00;;;4.50;99.90;;;;;;7282496;19;20186;-87
2023/11/28 01:17:17;;;;;;;16.23;9.50;;;4.60;99.90;;;;;;7289429;19;20198;-87
2023/11/28 01:19:43;;;;;;;16.13;9.73;;;4.60;99.90;;;;;;7289323;19;20186;-86
2023/11/28 01:22:11;;;;;;;17.47;10.13;;;4.80;99.90;;;;;;7302489;19;20255;-85
2023/11/28 01:24:37;;;;;;;15.63;9.40;;;4.90;99.90;;;;;;7311090;19;20211;-87
2023/11/28 01:27:04;;;;;;;15.53;9.40;;;4.90;99.90;;;;;;7288296;19;20239;-86
2023/11/28 01:29:30;;;;;;;17.43;10.33;;;4.70;99.90;;;;;;7287276;19;20190;-87
2023/11/28 01:31:56;;;;;;;16.97;10.37;;;4.80;99.90;;;;;;7288416;19;20193;-85
2023/11/28 01:34:22;;;;;;;16.53;10.50;;;4.80;99.90;;;;;;7287157;19;20207;-86
2023/11/28 01:36:49;;;;;;;16.97;10.40;;;4.90;99.90;;;;;;7287115;19;20191;-87
2023/11/28 01:39:15;;;;;;;15.37;9.40;;;4.90;99.90;;;;;;7287898;19;20192;-87
2023/11/28 01:41:42;;;;;;;16.43;10.23;;;4.90;99.90;;;;;;7287697;19;20540;-86
2023/11/28 01:44:08;;;;;;;17.00;10.40;;;4.80;99.90;;;;;;7320352;19;20613;-87
2023/11/28 01:46:35;;;;;;;14.77;9.47;;;4.80;99.90;;;;;;7288318;19;20216;-87
2023/11/28 01:49:06;;;;;;;15.40;9.40;;;4.90;99.90;;;;;;7285695;19;20676;-87
2023/11/28 01:51:34;;;;;;;16.53;9.63;;;5.00;99.90;;;;;;7287976;19;20641;-87
2023/11/28 01:54:04;;;;;;;15.53;9.27;;;4.80;99.90;;;;;;7286146;19;20593;-87
2023/11/28 01:56:31;;;;;;;18.80;9.87;;;4.80;99.90;;;;;;7286762;19;20196;-87
2023/11/28 01:58:58;;;;;;;17.00;9.20;;;4.90;99.90;;;;;;7287894;19;20532;-87
2023/11/28 02:01:24;;;;;;;18.00;10.80;;;5.00;99.90;;;;;;7284182;19;20666;-87
2023/11/28 02:03:51;;;;;;;16.53;9.53;;;5.00;99.90;;;;;;7287666;19;20205;-86
2023/11/28 02:06:17;;;;;;;17.47;10.27;;;4.80;99.90;;;;;;7287013;19;20208;-87
2023/11/28 02:08:44;;;;;;;17.70;10.73;;;4.90;99.90;;;;;;7285530;19;20199;-87
2023/11/28 02:11:10;;;;;;;17.90;10.83;;;4.90;99.90;;;;;;7290286;19;20190;-87
2023/11/28 02:13:36;;;;;;;17.03;10.60;;;4.80;99.90;;;;;;7307818;19;20217;-87
2023/11/28 02:16:10;;;;;;;17.00;10.30;;;4.80;99.90;;;;;;7285833;19;20269;-87
2023/11/28 02:18:36;;;;;;;17.07;10.90;;;4.80;99.90;;;;;;7287655;19;20285;-87
2023/11/28 02:21:02;;;;;;;17.73;10.27;;;4.70;99.90;;;;;;7283968;19;20199;-87
2023/11/28 02:23:28;;;;;;;17.97;10.70;;;4.80;99.90;;;;;;7284647;19;20514;-87
2023/11/28 02:25:57;;;;;;;15.20;9.20;;;4.70;99.90;;;;;;7284771;19;20190;-87
2023/11/28 02:28:24;;;;;;;15.83;9.33;;;4.80;99.90;;;;;;7284951;19;20195;-87
2023/11/28 02:30:56;;;;;;;15.47;9.50;;;4.80;99.90;;;;;;7287578;19;20192;-87
2023/11/28 02:33:22;;;;;;;15.47;9.43;;;4.80;99.90;;;;;;7285791;19;20924;-86
2023/11/28 02:35:48;;;;;;;13.13;7.87;;;4.80;99.90;;;;;;7285529;19;20198;-87
2023/11/28 02:38:15;;;;;;;14.97;9.90;;;4.80;99.90;;;;;;7286177;19;20283;-87
2023/11/28 02:40:41;;;;;;;14.00;9.17;;;4.70;99.90;;;;;;7286896;19;20179;-87
2023/11/28 02:43:08;;;;;;;14.67;9.60;;;4.80;99.90;;;;;;7307100;19;20195;-87
2023/11/28 02:45:34;;;;;;;14.17;9.27;;;5.00;99.90;;;;;;7285414;19;20205;-87
2023/11/28 02:48:00;;;;;;;13.50;8.73;;;5.00;99.90;;;;;;7283296;19;20194;-87
2023/11/28 02:50:27;;;;;;;14.00;8.97;;;4.90;99.90;;;;;;7284272;19;20205;-88
2023/11/28 02:52:53;;;;;;;13.67;8.90;;;4.90;99.90;;;;;;7285532;19;20181;-86
2023/11/28 02:55:19;;;;;;;12.23;8.07;;;4.90;99.90;;;;;;7284768;19;20227;-86
2023/11/28 02:57:47;;;;;;;11.23;6.10;;;4.70;99.90;;;;;;7284203;19;20205;-87
2023/11/28 03:00:13;;;;;;;12.37;8.03;;;4.70;99.90;;;;;;7285317;19;20193;-87
2023/11/28 03:02:39;;;;;;;11.90;7.73;;;4.60;99.90;;;;;;7293673;19;20184;-86
2023/11/28 03:05:06;;;;;;;11.60;7.23;;;4.60;99.90;;;;;;7305398;19;20185;-88
2023/11/28 03:07:32;;;;;;;11.03;7.03;;;4.60;99.90;;;;;;7284442;19;20198;-87
2023/11/28 03:09:58;;;;;;;10.87;6.43;;;4.50;99.90;;;;;;7285275;19;21282;-87
2023/11/28 03:12:24;;;;;;;9.87;6.20;;;4.50;99.90;;;;;;7299105;19;20590;-86
2023/11/28 03:14:50;;;;;;;11.17;6.87;;;4.50;99.90;;;;;;7283843;19;20182;-87
2023/11/28 03:17:16;;;;;;;10.70;6.63;;;4.60;99.90;;;;;;7284099;19;20177;-86
2023/11/28 03:19:42;;;;;;;9.87;6.13;;;4.60;99.90;;;;;;7283601;19;20186;-86
2023/11/28 03:22:08;;;;;;;9.30;5.77;;;4.60;99.90;;;;;;7304685;19;20217;-87
2023/11/28 03:24:33;;;;;;;10.87;6.40;;;4.50;99.90;;;;;;7284235;19;20194;-86
2023/11/28 03:26:59;;;;;;;8.57;5.20;;;4.50;99.90;;;;;;7282933;19;20194;-86
2023/11/28 03:29:27;;;;;;;8.30;4.60;;;4.40;99.90;;;;;;7282145;19;20624;-86
2023/11/28 03:31:52;;;;;;;10.13;6.07;;;4.30;99.90;;;;;;7281304;19;20331;-86
2023/11/28 03:34:18;;;;;;;9.73;6.00;;;4.30;99.90;;;;;;7283551;19;20223;-86
2023/11/28 03:36:44;;;;;;;9.93;6.20;;;4.30;99.90;;;;;;7282307;19;20197;-86
2023/11/28 03:39:10;;;;;;;9.90;6.37;;;4.30;99.90;;;;;;7280276;19;20198;-86
2023/11/28 03:41:37;;;;;;;10.33;6.20;;;4.40;99.90;;;;;;7303966;19;20202;-87
2023/11/28 03:44:03;;;;;;;10.60;7.03;;;4.40;99.90;;;;;;7284400;19;20185;-86
2023/11/28 03:46:29;;;;;;;11.20;7.03;;;4.50;99.90;;;;;;7281863;19;20368;-86
2023/11/28 03:48:55;;;;;;;13.50;6.80;;;4.50;99.90;;;;;;7282872;19;20201;-86
2023/11/28 03:51:20;;;;;;;11.20;7.30;;;4.50;99.90;;;;;;7285249;19;20190;-86
2023/11/28 03:53:46;;;;;;;11.47;7.63;;;4.50;99.90;;;;;;7282280;19;20217;-86
2023/11/28 03:56:13;;;;;;;11.43;7.50;;;4.40;99.90;;;;;;7282362;19;20178;-86
2023/11/28 03:58:41;;;;;;;12.03;7.33;;;4.50;99.90;;;;;;7288567;19;20653;-86
2023/11/28 04:01:07;;;;;;;11.87;7.50;;;4.50;99.90;;;;;;7302754;19;20203;-87
2023/11/28 04:03:33;;;;;;;12.07;8.07;;;4.60;99.90;;;;;;7281815;19;20195;-86
2023/11/28 04:05:59;;;;;;;10.53;5.80;;;4.70;99.90;;;;;;7281561;19;20185;-86
2023/11/28 04:08:25;;;;;;;12.60;8.40;;;4.70;99.90;;;;;;7283141;19;20178;-86
2023/11/28 04:10:51;;;;;;;12.63;8.43;;;4.60;99.90;;;;;;7282133;19;20208;-86
2023/11/28 04:13:17;;;;;;;12.50;8.10;;;4.60;99.90;;;;;;7280624;19;20178;-86
2023/11/28 04:15:43;;;;;;;13.20;8.73;;;4.70;99.90;;;;;;7280565;19;20189;-86
2023/11/28 04:18:10;;;;;;;15.47;9.13;;;4.70;99.90;;;;;;7291493;19;20177;-86
2023/11/28 04:20:36;;;;;;;14.67;9.07;;;4.70;99.90;;;;;;7304605;19;20195;-86
2023/11/28 04:23:03;;;;;;;17.00;10.90;;;4.50;99.90;;;;;;7281570;19;20215;-86
2023/11/28 04:25:29;;;;;;;16.77;10.80;;;4.50;99.90;;;;;;7282201;19;20176;-87
2023/11/28 04:27:56;;;;;;;17.77;11.60;;;4.50;99.90;;;;;;7281792;19;20262;-87
2023/11/28 04:30:22;;;;;;;16.70;10.97;;;4.50;99.90;;;;;;7283611;19;20189;-87
2023/11/28 04:32:48;;;;;;;18.13;12.30;;;4.50;99.90;;;;;;7281932;19;20183;-86
2023/11/28 04:35:14;;;;;;;17.07;11.10;;;4.40;99.90;;;;;;7281933;19;20193;-86
2023/11/28 04:37:40;;;;;;;18.47;11.57;;;4.50;99.90;;;;;;7285373;19;20196;-86
2023/11/28 04:40:08;;;;;;;16.13;11.00;;;4.40;99.90;;;;;;7313267;19;20181;-86
2023/11/28 04:42:34;;;;;;;16.77;11.40;;;4.40;99.90;;;;;;7288035;19;20933;-87
2023/11/28 04:45:00;;;;;;;16.43;10.03;;;4.60;99.90;;;;;;7281592;19;20195;-86
2023/11/28 04:47:26;;;;;;;16.07;10.30;;;4.70;99.90;;;;;;7282041;19;20196;-86
2023/11/28 04:49:52;;;;;;;16.20;10.97;;;4.70;99.90;;;;;;7283595;19;20198;-86
2023/11/28 04:52:18;;;;;;;16.73;10.80;;;4.60;99.90;;;;;;7292500;19;20208;-87
2023/11/28 04:54:43;;;;;;;15.40;10.50;;;4.70;99.90;;;;;;7292919;19;20197;-86
2023/11/28 04:57:09;;;;;;;17.57;11.03;;;4.60;99.90;;;;;;7305721;19;20197;-86
2023/11/28 04:59:36;;;;;;;14.70;9.73;;;4.60;99.90;;;;;;7311819;19;20183;-87
2023/11/28 05:02:01;;;;;;;16.63;11.43;;;4.70;99.90;;;;;;7284990;19;20677;-87
2023/11/28 05:04:27;;;;;;;16.13;10.50;;;4.60;99.90;;;;;;7288081;19;20192;-87
2023/11/28 05:06:53;;;;;;;15.57;9.17;;;4.50;99.90;;;;;;7288418;19;20209;-86
2023/11/28 05:09:20;;;;;;;14.87;9.67;;;4.40;99.90;;;;;;7286754;19;20211;-86
2023/11/28 05:11:46;;;;;;;14.30;9.30;;;4.40;99.90;;;;;;7286963;19;20185;-86
2023/11/28 05:14:13;;;;;;;14.77;9.67;;;4.40;99.90;;;;;;7287516;19;20187;-86
2023/11/28 05:16:38;;;;;;;14.83;9.77;;;4.40;99.90;;;;;;7310941;19;20661;-87
2023/11/28 05:19:05;;;;;;;14.33;9.20;;;4.50;99.90;;;;;;7290490;19;20209;-87
2023/11/28 05:21:33;;;;;;;14.60;9.73;;;4.50;99.90;;;;;;7286715;19;21063;-87
2023/11/28 05:24:01;;;;;;;13.60;8.90;;;4.50;99.90;;;;;;7288464;19;20187;-86
2023/11/28 05:26:27;;;;;;;15.53;9.63;;;4.50;99.90;;;;;;7289957;19;20188;-87
2023/11/28 05:28:53;;;;;;;14.30;9.40;;;4.60;99.90;;;;;;7287475;19;20198;-86
2023/11/28 05:31:18;;;;;;;15.30;9.77;;;4.50;99.90;;;;;;7289682;19;20652;-87
2023/11/28 05:33:44;;;;;;;15.43;9.30;;;4.50;99.90;;;;;;7288085;19;20671;-86
2023/11/28 05:36:11;;;;;;;12.57;7.83;;;4.50;99.90;;;;;;7290737;19;20694;-86
2023/11/28 05:38:38;;;;;;;14.57;9.43;;;4.40;99.90;;;;;;7313843;19;20203;-87
2023/11/28 05:41:04;;;;;;;14.90;8.83;;;4.40;99.90;;;;;;7292862;19;20698;-87
2023/11/28 05:43:32;;;;;;;13.47;8.00;;;4.40;99.90;;;;;;7294867;19;20601;-87
2023/11/28 05:45:59;;;;;;;14.50;8.23;;;4.20;99.90;;;;;;7296773;19;20201;-86
2023/11/28 05:48:25;;;;;;;12.67;7.43;;;4.30;99.90;;;;;;7298006;19;20689;-87
2023/11/28 05:50:52;;;;;;;13.97;8.40;;;4.20;99.90;;;;;;7299523;19;20253;-86
2023/11/28 05:53:19;;;;;;;14.07;7.43;;;4.30;99.90;;;;;;7292698;19;20205;-86
2023/11/28 05:55:46;;;;;;;15.43;9.00;;;4.30;99.90;;;;;;7290494;19;20606;-86
2023/11/28 05:58:13;;;;;;;18.77;10.73;;;4.30;99.90;;;;;;7288467;19;20212;-86
2023/11/28 06:00:39;;;;;;;15.73;8.97;;;4.30;99.90;;;;;;7306604;19;20192;-85
2023/11/28 06:03:05;;;;;;;16.47;9.40;;;4.40;99.90;;;;;;7301234;19;20202;-86
2023/11/28 06:05:32;;;;;;;16.73;9.67;;;4.50;99.90;;;;;;7288561;19;20196;-85
2023/11/28 06:07:58;;;;;;;14.60;10.10;;;4.40;99.90;;;;;;7290411;19;20194;-84
2023/11/28 06:10:26;;;;;;;14.97;8.97;;;4.40;99.90;;;;;;7291822;19;20205;-81
2023/11/28 06:12:54;;;;;;;16.20;9.60;;;4.30;99.90;;;;;;7287580;19;20193;-85
2023/11/28 06:15:22;;;;;;;16.53;9.73;;;4.10;99.90;;;;;;7286386;19;20200;-85
2023/11/28 06:17:47;;;;;;;16.70;10.17;;;4.00;99.90;;;;;;7287937;19;20218;-83
2023/11/28 06:20:16;;;;;;;15.33;9.57;;;4.20;99.90;;;;;;7285402;19;20191;-88
2023/11/28 06:22:44;;;;;;;15.33;9.30;;;4.30;99.90;;;;;;7286199;19;20189;-82
2023/11/28 06:25:10;;;;;;;16.17;9.47;;;4.30;99.90;;;;;;7289501;19;20229;-83
2023/11/28 06:27:37;;;;;;;16.03;9.70;;;4.30;99.90;;;;;;7303714;19;20199;-85
2023/11/28 06:30:05;;;;;;;15.07;9.43;;;4.40;99.90;;;;;;7285843;19;20196;-82
2023/11/28 06:32:30;;;;;;;16.93;10.43;;;4.40;99.90;;;;;;7286867;19;20190;-86
2023/11/28 06:34:56;;;;;;;15.90;9.93;;;4.50;99.90;;;;;;7284957;19;20219;-84
2023/11/28 06:37:22;;;;;;;17.37;11.23;;;4.40;99.90;;;;;;7285487;19;20196;-84
2023/11/28 06:39:48;;;;;;;17.30;10.27;;;4.60;99.90;;;;;;7286382;19;20219;-85
2023/11/28 06:42:16;;;;;;;17.83;10.37;;;4.60;99.90;;;;;;7284030;19;20230;-84
2023/11/28 06:44:42;;;;;;;18.03;10.90;;;4.60;99.90;;;;;;7284060;19;20195;-85
2023/11/28 06:47:08;;;;;;;16.90;10.23;;;4.60;99.90;;;;;;7307931;19;20188;-85
2023/11/28 06:49:33;;;;;;;17.90;10.83;;;4.50;99.90;;;;;;7285719;19;20649;-86
2023/11/28 06:52:01;;;;;;;18.30;11.13;;;4.50;99.90;;;;;;7279882;19;20671;-84
2023/11/28 06:54:28;;;;;;;16.67;10.23;;;4.40;99.90;;;;;;7281479;19;20190;-84
2023/11/28 06:56:55;;;;;;;15.50;9.53;;;4.40;99.90;;;;;;7280659;19;20729;-84
2023/11/28 06:59:21;;;;;;;17.10;10.40;;;4.50;99.90;;;;;;7281517;19;20676;-85
2023/11/28 07:01:48;;;;;;;17.53;10.27;;;4.40;99.90;;;;;;7282429;19;20192;-86
2023/11/28 07:04:16;;;;;;;16.97;10.90;;;4.60;99.90;;;;;;7282537;19;20195;-82
2023/11/28 07:06:42;;;;;;;15.67;9.83;;;4.50;99.90;;;;;;7281204;19;20189;-82
2023/11/28 07:09:10;;;;;;;16.33;9.57;;;4.50;99.90;;;;;;7303076;19;20192;-86
2023/11/28 07:11:36;;;;;;;16.00;9.17;;;4.50;99.90;;;;;;7280215;19;20224;-85
2023/11/28 07:14:02;;;;;;;14.27;8.07;;;4.40;99.90;;;;;;7278758;19;20216;-85
2023/11/28 07:16:28;;;;;;;18.03;9.33;;;4.20;99.90;;;;;;7279712;19;20651;-84
2023/11/28 07:18:54;;;;;;;17.77;9.20;;;4.10;99.90;;;;;;7278600;19;20212;-85
2023/11/28 07:21:20;;;;;;;15.23;8.93;;;4.10;99.90;;;;;;7279273;19;20186;-85
2023/11/28 07:23:46;;;;;;;16.73;9.67;;;4.10;99.90;;;;;;7279149;19;20192;-84
2023/11/28 07:26:13;;;;;;;18.13;9.70;;;4.10;99.90;;;;;;7279029;19;20251;-85
2023/11/28 07:28:40;;;;;;;16.63;9.60;;;4.10;99.90;;;;;;7295891;19;20189;-85
2023/11/28 07:31:06;;;;;;;16.40;10.00;;;4.00;99.90;;;;;;7298830;19;20193;-86
2023/11/28 07:33:34;;;;;;;17.93;10.30;;;3.80;99.90;;;;;;7282242;19;20193;-85
2023/11/28 07:36:00;;;;;;;16.10;10.07;;;4.00;99.90;;;;;;7290018;19;20283;-85
2023/11/28 07:38:26;;;;;;;14.63;9.27;;;4.00;99.90;;;;;;7281990;19;20631;-84
2023/11/28 07:40:52;;;;;;;15.87;9.53;;;4.00;99.90;;;;;;7280279;19;20187;-85
2023/11/28 07:43:18;;;;;;;16.07;10.67;;;3.90;99.90;;;;;;7280076;19;20220;-85
2023/11/28 07:45:45;;;;;;;18.00;11.47;;;3.70;99.90;;;;;;7277841;19;20193;-80
2023/11/28 07:48:12;;;;;;;17.90;11.00;;;3.60;99.90;;;;;;7274015;19;20215;-79
2023/11/28 07:50:38;;;;;;;17.17;10.17;;;3.50;99.90;;;;;;7300282;19;20245;-79
2023/11/28 07:53:06;;;;;;;18.83;10.90;;;3.60;99.90;;;;;;7277595;19;20189;-80
2023/11/28 07:55:31;;;;;;;16.30;9.67;;;3.70;99.90;;;;;;7275882;19;20223;-82
2023/11/28 07:57:57;;;;;;;16.90;9.73;;;3.80;99.90;;;;;;7276394;19;20193;-84
2023/11/28 08:00:25;;;;;;;13.93;7.37;;;3.70;99.90;;;;;;7278297;19;20192;-84
2023/11/28 08:02:51;;;;;;;13.53;8.13;;;3.50;99.90;;;;;;7276505;19;20189;-85
2023/11/28 08:05:17;;;;;;;13.97;7.67;;;3.50;99.90;;;;;;7279535;19;20701;-84
2023/11/28 08:07:42;;;;;;;14.53;6.77;;;3.50;99.90;;;;;;7278283;19;20682;-84
2023/11/28 08:10:11;;;;;;;13.50;8.00;;;3.50;99.90;;;;;;7299860;19;20185;-82
2023/11/28 08:12:38;;;;;;;13.37;7.53;;;3.50;99.90;;;;;;7274052;19;20184;-81
2023/11/28 08:15:06;;;;;;;13.70;7.80;;;3.50;99.90;;;;;;7274958;19;20272;-81
2023/11/28 08:17:32;;;;;;;12.67;6.93;;;3.60;99.90;;;;;;7276212;19;20194;-81
2023/11/28 08:19:58;;;;;;;12.90;6.80;;;3.60;99.90;;;;;;7276642;19;20202;-81
2023/11/28 08:22:25;;;;;;;12.83;6.47;;;3.60;99.90;;;;;;7275830;19;20198;-82
2023/11/28 08:24:51;;;;;;;10.60;6.13;;;3.50;99.90;;;;;;7282085;19;20194;-80
2023/11/28 08:27:18;;;;;;;9.80;5.93;;;3.60;99.90;;;;;;7283004;19;20664;-79
2023/11/28 08:29:44;;;;;;;11.77;5.97;;;3.70;99.90;;;;;;7284243;19;20690;-84
2023/11/28 08:32:09;;;;;;;11.50;5.70;;;3.80;99.90;;;;;;7301994;19;20219;-81
2023/11/28 08:34:35;;;;;;;12.00;4.60;;;3.80;99.90;;;;;;7295270;19;20195;-81
2023/11/28 08:37:02;;;;;;;9.70;4.60;;;3.80;99.90;;;;;;7282966;19;20198;-82
2023/11/28 08:39:28;;;;;;;8.83;4.63;;;3.60;99.90;;;;;;7284000;19;20604;-81
2023/11/28 08:41:54;;;;;;;8.33;4.33;;;3.50;99.90;;;;;;7282613;19;20191;-82
2023/11/28 08:44:21;;;;;;;10.80;5.27;;;3.50;99.90;;;;;;7278796;19;20534;-82
2023/11/28 08:46:47;;;;;;;9.43;4.70;;;3.50;99.90;;;;;;7278312;19;20198;-82
2023/11/28 08:49:14;;;;;;;8.73;3.90;;;3.50;99.90;;;;;;7278835;19;20187;-81
2023/11/28 08:51:41;;;;;;;8.93;4.37;;;3.60;99.90;;;;;;7291484;19;20552;-81
2023/11/28 08:54:07;;;;;;;8.27;4.33;;;3.50;99.90;;;;;;7303088;19;20190;-81
2023/11/28 08:56:33;;;;;;;9.07;4.40;;;3.40;99.90;;;;;;7277977;19;20300;-81
2023/11/28 08:58:59;;;;;;;9.37;4.87;;;3.40;99.90;;;;;;7278508;19;20189;-81
2023/11/28 09:01:25;;;;;;;9.87;4.30;;;3.40;99.90;;;;;;7281084;19;20189;-79
2023/11/28 09:03:51;;;;;;;9.97;4.60;;;3.40;99.90;;;;;;7282587;19;20210;-85
2023/11/28 09:06:17;;;;;;;9.87;4.37;;;3.40;99.90;;;;;;7279084;19;20181;-82
2023/11/28 09:08:43;;;;;;;7.93;3.77;;;3.20;99.90;;;;;;7277560;19;20214;-83
2023/11/28 09:11:09;;;;;;;6.87;3.77;;;3.10;99.90;;;;;;7299008;19;20184;-82
2023/11/28 09:13:35;;;;;;;8.00;4.33;;;3.20;99.90;;;;;;7368034;19;20192;-84
2023/11/28 09:16:07;;;;;;;9.53;4.40;;;3.20;99.90;;;;;;7389304;19;20154;-82
2023/11/28 09:18:33;;;;;;;7.57;3.87;;;3.30;99.90;;;;;;7284138;19;20196;-82
2023/11/28 09:20:59;;;;;;;8.80;4.40;;;3.20;99.90;;;;;;7277854;19;20189;-85
2023/11/28 09:23:25;;;;;;;7.73;4.10;;;3.20;99.90;;;;;;7281891;19;20784;-83
2023/11/28 09:25:51;;;;;;;7.83;4.37;;;3.20;99.90;;;;;;7278359;19;20200;-83
2023/11/28 09:28:16;;;;;;;9.73;4.43;;;3.20;99.90;;;;;;7275654;19;20209;-82
2023/11/28 09:30:42;;;;;;;7.43;3.87;;;3.10;99.90;;;;;;7271935;19;20211;-83
2023/11/28 09:33:08;;;;;;;8.97;4.17;;;3.10;99.90;;;;;;7297864;19;20196;-82
2023/11/28 09:35:34;;;;;;;8.43;4.10;;;3.10;99.90;;;;;;7274589;19;20190;-83
2023/11/28 09:38:00;;;;;;;8.83;4.13;;;3.10;99.90;;;;;;7280678;19;20203;-82
2023/11/28 09:40:25;;;;;;;8.87;4.37;;;3.20;99.90;;;;;;7282724;19;20199;-82
2023/11/28 09:42:55;;;;;;;8.30;4.53;;;3.30;99.90;;;;;;7284267;19;20181;-83
2023/11/28 09:45:21;;;;;;;11.13;4.50;;;3.50;99.90;;;;;;7280827;19;20197;-82
2023/11/28 09:47:48;;;;;;;8.90;4.13;;;3.50;99.90;;;;;;7281626;19;20682;-83
2023/11/28 09:50:15;;;;;;;8.73;4.57;;;3.50;99.90;;;;;;7282175;19;20198;-83
2023/11/28 09:52:45;;;;;;;8.40;3.97;;;3.70;99.90;;;;;;7273943;19;20203;-83
2023/11/28 09:55:15;;;;;;;8.67;4.43;;;3.70;99.90;;;;;;7281556;19;20212;-83
2023/11/28 09:57:47;;;;;;;8.63;4.00;;;3.70;99.90;;;;;;7289267;19;20658;-83
2023/11/28 10:00:20;;;;;;;7.43;3.80;;;3.50;99.90;;;;;;7280661;19;20270;-82
2023/11/28 10:02:51;;;;;;;7.50;3.70;;;3.60;99.90;;;;;;7281705;19;20186;-83
2023/11/28 10:05:19;;;;;;;9.13;3.10;;;4.00;99.90;;;;;;7279298;19;20599;-83
2023/11/28 10:07:48;;;;;;;6.30;2.80;;;5.00;99.90;;;;;;7281353;19;20183;-82
2023/11/28 10:10:16;;;;;;;4.70;2.70;;;5.80;99.90;;;;;;7271988;19;20192;-83
2023/11/28 10:12:42;;;;;;;4.87;2.60;;;6.10;99.90;;;;;;7280426;19;20182;-83
2023/11/28 10:15:08;;;;;;;5.83;2.90;;;6.20;99.90;;;;;;7303561;19;20271;-83
2023/11/28 10:17:38;;;;;;;9.30;4.30;;;6.60;99.90;;;;;;7282515;19;20195;-83
2023/11/28 10:20:08;;;;;;;24.97;10.17;;;6.60;99.90;;;;;;7282265;19;20193;-82
2023/11/28 10:22:34;;;;;;;5.77;2.87;;;6.90;99.90;;;;;;7280064;19;20230;-83
2023/11/28 10:25:11;;;;;;;5.53;2.90;;;7.00;99.90;;;;;;7282135;19;20728;-83
2023/11/28 10:27:44;;;;;;;5.57;2.80;;;7.80;99.90;;;;;;7285060;19;20213;-84
2023/11/28 10:30:23;;;;;;;4.13;2.47;;;8.70;99.90;;;;;;7284752;19;20181;-86
2023/11/28 10:32:49;;;;;;;6.67;2.70;;;9.00;99.90;;;;;;7286472;19;20190;-85
2023/11/28 10:35:22;;;;;;;5.07;2.77;;;9.60;99.90;;;;;;7283070;19;20211;-83
2023/11/28 10:37:50;;;;;;;4.70;2.63;;;9.70;99.90;;;;;;7287581;19;20187;-83
2023/11/28 10:40:18;;;;;;;4.90;2.63;;;9.70;99.90;;;;;;7284537;19;20287;-83
2023/11/28 10:42:44;;;;;;;4.13;2.20;;;10.70;99.90;;;;;;7286531;19;20184;-83
2023/11/28 10:45:23;;;;;;;6.97;2.60;;;11.10;99.90;;;;;;7296859;19;20202;-83
2023/11/28 10:47:56;;;;;;;5.17;2.90;;;12.00;99.90;;;;;;7280207;19;20222;-83
2023/11/28 10:50:23;;;;;;;4.53;2.47;;;12.20;99.90;;;;;;7283757;19;20205;-83
2023/11/28 10:52:53;;;;;;;4.97;2.50;;;12.60;99.90;;;;;;7284578;19;20657;-83
2023/11/28 10:55:26;;;;;;;6.77;2.77;;;13.20;99.90;;;;;;7282329;19;20186;-84
2023/11/28 10:58:00;;;;;;;4.90;2.40;;;13.70;99.90;;;;;;7282597;19;20617;-84
2023/11/28 11:00:27;;;;;;;5.07;2.20;;;14.30;99.90;;;;;;7282421;19;20554;-84
2023/11/28 11:03:00;;;;;;;4.50;2.23;;;15.20;98.10;;;;;;7282957;19;20211;-84
2023/11/28 11:05:32;;;;;;;5.23;2.40;;;16.00;94.40;;;;;;7284383;19;20215;-85
2023/11/28 11:11:02;;;;;;;3.73;2.20;;;16.90;88.30;;;;;;7212672;19;2004679;-84
2023/11/28 11:13:37;;;;;;;5.10;2.27;;;16.10;88.40;;;;;;7312240;19;20194;-84
2023/11/28 11:16:26;;;;;;;3.43;1.93;;;15.40;88.80;;;;;;7316464;19;20209;-84
2023/11/28 11:18:55;;;;;;;3.90;2.00;;;14.60;91.80;;;;;;7213203;19;2006031;-84
2023/11/28 11:21:43;;;;;;;5.80;2.47;;;14.30;92.20;;;;;;7315109;19;20188;-84
2023/11/28 11:24:20;;;;;;;3.60;2.20;;;13.90;92.70;;;;;;7212806;19;2004597;-84
2023/11/28 11:26:54;;;;;;;3.67;2.10;;;14.10;95.10;;;;;;7316770;19;20199;-84
2023/11/28 11:29:28;;;;;;;4.40;2.47;;;14.20;95.20;;;;;;7315622;19;20698;-85
2023/11/28 11:32:00;;;;;;;4.17;2.30;;;14.80;91.60;;;;;;7317428;19;20647;-85
2023/11/28 11:34:46;;;;;;;6.07;1.90;;;15.00;91.20;;;;;;7316911;19;20179;-85
2023/11/28 11:37:19;;;;;;;3.83;2.03;;;15.50;88.40;;;;;;7300043;19;20184;-84
2023/11/28 11:39:46;;;;;;;5.70;1.90;;;15.40;87.80;;;;;;7324080;19;21007;-83
2023/11/28 11:42:33;;;;;;;2.37;1.47;;;15.50;86.40;;;;;;7323105;19;20186;-82
2023/11/28 11:45:04;;;;;;;4.03;1.70;;;15.20;82.40;;;;;;7312969;19;20278;-81
2023/11/28 11:47:32;;;;;;;2.97;1.70;;;15.50;85.80;;;;;;7313907;19;20202;-83
2023/11/28 11:49:59;;;;;;;5.33;2.03;;;15.80;82.70;;;;;;7315400;19;20182;-84
2023/11/28 11:52:25;;;;;;;5.23;2.13;;;15.50;81.30;;;;;;7315418;19;20195;-84
2023/11/28 11:54:52;;;;;;;3.83;2.00;;;15.00;83.90;;;;;;7315476;19;20192;-85
2023/11/28 11:57:20;;;;;;;3.37;1.83;;;15.30;86.70;;;;;;7319680;19;20186;-86
2023/11/28 11:59:46;;;;;;;4.17;2.23;;;15.00;85.30;;;;;;7317814;19;20193;-83
2023/11/28 12:02:13;;;;;;;8.37;2.40;;;14.70;87.20;;;;;;7314737;19;20188;-84
2023/11/28 12:04:46;;;;;;;5.93;2.70;;;14.40;86.70;;;;;;7315187;19;20215;-83
2023/11/28 12:07:19;;;;;;;5.07;2.30;;;14.20;88.50;;;;;;7312573;19;20213;-84
2023/11/28 12:09:45;;;;;;;4.50;2.67;;;14.50;89.20;;;;;;7314034;19;20262;-84
2023/11/28 12:12:14;;;;;;;5.47;2.60;;;14.60;88.90;;;;;;7320941;19;20184;-83
2023/11/28 12:14:40;;;;;;;4.33;2.50;;;15.00;87.80;;;;;;7332254;19;20663;-84
2023/11/28 12:17:07;;;;;;;2.83;2.00;;;15.30;87.30;;;;;;7331583;19;20782;-84
2023/11/28 12:19:33;;;;;;;3.80;2.13;;;15.80;85.00;;;;;;7285258;19;20273;-84
2023/11/28 12:22:08;;;;;;;4.73;2.23;;;16.10;83.70;;;;;;7285483;19;20254;-85
2023/11/28 12:24:35;;;;;;;2.93;2.07;;;16.20;82.40;;;;;;7285797;19;20191;-84
2023/11/28 12:27:03;;;;;;;4.43;2.17;;;16.10;82.80;;;;;;7283642;19;20195;-85
2023/11/28 12:29:31;;;;;;;4.87;2.60;;;16.40;82.50;;;;;;7284614;19;20905;-85
2023/11/28 12:31:57;;;;;;;6.37;3.00;;;16.70;81.60;;;;;;7285780;19;20190;-85
2023/11/28 12:34:28;;;;;;;7.87;3.40;;;16.80;81.60;;;;;;7285588;19;20191;-84
2023/11/28 12:36:56;;;;;;;4.93;2.80;;;16.60;81.00;;;;;;7286067;19;20189;-85
2023/11/28 12:39:23;;;;;;;3.70;2.50;;;16.70;80.30;;;;;;7285935;19;20212;-85
2023/11/28 12:41:57;;;;;;;5.17;2.70;;;16.70;81.90;;;;;;7286575;19;20272;-84
2023/11/28 12:44:25;;;;;;;5.20;2.37;;;16.70;79.70;;;;;;7285873;19;20213;-85
2023/11/28 12:46:52;;;;;;;7.07;2.07;;;16.70;78.50;;;;;;7286414;19;20188;-85
2023/11/28 12:49:18;;;;;;;4.00;2.20;;;16.80;78.80;;;;;;7285083;19;20564;-85